Time;durP1;ratioP1;P1;durP2;ratioP2;P2;SDS_P1;SDS_P2;PMS_P1;PMS_P2;Temp;Humidity;BMP_temperature;BMP_pressure;BME280_temperature;BME280_humidity;BME280_pressure;Samples;Min_cycle;Max_cycle;Signal;HPM_P1;HPM_P2
2020/11/24 00:00:29;;;;;;;31;23.5;;;;;;;4.16;74.44922;99941.41;;;;
2020/11/24 00:10:26;;;;;;;27.8;22.8;;;;;;;4.12;75.25293;99942.09;;;;
2020/11/24 00:20:24;;;;;;;37.9;22.7;;;;;;;4.09;74.90234;99945.22;;;;
2020/11/24 00:30:22;;;;;;;27.5;22.1;;;;;;;4.16;75.06055;99957.41;;;;
2020/11/24 00:40:21;;;;;;;32;22.3;;;;;;;4.22;74.8252;99963.66;;;;
2020/11/24 00:50:18;;;;;;;26.6;20.3;;;;;;;4.27;74.64551;99961.13;;;;
2020/11/24 01:00:18;;;;;;;23.8;17.8;;;;;;;4.34;74.32227;99969.83;;;;
2020/11/24 01:10:20;;;;;;;27.1;20.8;;;;;;;4.37;74.54004;99975.48;;;;
2020/11/24 01:20:13;;;;;;;28.8;19.3;;;;;;;4.38;74.19629;99982.45;;;;
2020/11/24 01:30:11;;;;;;;33.9;18.7;;;;;;;4.39;74.05371;99984.08;;;;
2020/11/24 01:40:11;;;;;;;21.1;17.9;;;;;;;4.39;74.3877;99977.92;;;;
2020/11/24 01:50:07;;;;;;;21.8;17.1;;;;;;;4.43;74.40625;99984.42;;;;
2020/11/24 02:00:05;;;;;;;21.5;17.5;;;;;;;4.42;74.36035;99991.62;;;;
2020/11/24 02:10:03;;;;;;;19.7;13.4;;;;;;;4.41;74.53516;99981.98;;;;
2020/11/24 02:20:01;;;;;;;20.5;14.2;;;;;;;4.43;74.33984;99973.75;;;;
2020/11/24 02:29:59;;;;;;;20.3;15;;;;;;;4.42;74.57129;99970.27;;;;
2020/11/24 02:39:57;;;;;;;18.2;14.4;;;;;;;4.44;74.41895;99986.84;;;;
2020/11/24 02:49:55;;;;;;;26.2;16.2;;;;;;;4.41;74.74609;99968.63;;;;
2020/11/24 02:59:53;;;;;;;16.6;13;;;;;;;4.37;74.89648;99972.02;;;;
2020/11/24 03:09:51;;;;;;;25.9;16.3;;;;;;;4.36;75.32715;99957.05;;;;
2020/11/24 03:19:49;;;;;;;13.4;11.8;;;;;;;4.36;75.1377;99967.72;;;;
2020/11/24 03:29:47;;;;;;;25.8;11.2;;;;;;;4.35;75.16016;99980.25;;;;
2020/11/24 03:39:45;;;;;;;15.4;10.5;;;;;;;4.38;75.03125;99970.95;;;;
2020/11/24 03:49:46;;;;;;;17.5;12.2;;;;;;;4.4;75.3125;99976.89;;;;
2020/11/24 03:59:45;;;;;;;18.9;13;;;;;;;4.38;75.23145;99970.95;;;;
2020/11/24 04:09:43;;;;;;;20.4;9.7;;;;;;;4.35;74.91504;99961.56;;;;
2020/11/24 04:19:37;;;;;;;14.2;8.4;;;;;;;4.35;74.64844;99944.73;;;;
2020/11/24 04:29:35;;;;;;;21.4;12.2;;;;;;;4.35;74.20313;99950.89;;;;
2020/11/24 04:39:33;;;;;;;23;14.6;;;;;;;4.38;74.05176;99963.77;;;;
2020/11/24 04:49:31;;;;;;;17.1;11.3;;;;;;;4.37;73.9834;99970.14;;;;
2020/11/24 04:59:28;;;;;;;20;13.1;;;;;;;4.38;73.8291;99962.95;;;;
2020/11/24 05:09:26;;;;;;;12.4;10.2;;;;;;;4.29;73.99219;99956.35;;;;
2020/11/24 05:19:24;;;;;;;16.1;11.1;;;;;;;4.18;74.49512;99973.17;;;;
2020/11/24 05:29:22;;;;;;;12.9;9.3;;;;;;;4.02;75.3125;99972.02;;;;
2020/11/24 05:39:20;;;;;;;12.5;8.8;;;;;;;4.02;74.93555;99964.83;;;;
2020/11/24 05:49:18;;;;;;;18;11;;;;;;;4.01;74.97852;99979.2;;;;
2020/11/24 05:59:16;;;;;;;14.3;9.1;;;;;;;4.05;74.79785;99985.7;;;;
2020/11/24 06:09:15;;;;;;;17.9;11.1;;;;;;;4.11;74.69434;100007.2;;;;
2020/11/24 06:19:12;;;;;;;17.6;10.8;;;;;;;4.12;74.57422;99998.93;;;;
2020/11/24 06:29:10;;;;;;;15;10.4;;;;;;;4.11;74.81738;100016;;;;
2020/11/24 06:39:11;;;;;;;17.5;9.6;;;;;;;4.21;74.51074;100012.7;;;;
2020/11/24 06:49:06;;;;;;;19.7;9.7;;;;;;;4.19;74.37598;100005;;;;
2020/11/24 06:59:03;;;;;;;14.9;9.6;;;;;;;4.2;74.06543;100014.6;;;;
2020/11/24 07:09:02;;;;;;;14.4;9.9;;;;;;;4.39;73.76367;100034;;;;
2020/11/24 07:18:59;;;;;;;12.6;11;;;;;;;4.61;72.83301;100037.7;;;;
2020/11/24 07:28:57;;;;;;;20.3;12.4;;;;;;;4.82;72.91406;100037.1;;;;
2020/11/24 07:38:55;;;;;;;15.6;12.2;;;;;;;4.88;71.96387;100030;;;;
2020/11/24 07:48:53;;;;;;;18.1;12.2;;;;;;;4.69;71.77734;100013.3;;;;
2020/11/24 07:58:51;;;;;;;15.5;10.7;;;;;;;4.69;71.87598;100004.5;;;;
2020/11/24 08:08:49;;;;;;;13.8;10.5;;;;;;;4.83;71.0293;100006.7;;;;
2020/11/24 08:18:47;;;;;;;15;8.8;;;;;;;4.97;70.96387;100017.9;;;;
2020/11/24 08:28:45;;;;;;;19;10.5;;;;;;;5.4;69.26953;100017.4;;;;
2020/11/24 08:38:43;;;;;;;10.9;6.9;;;;;;;5.71;64.77734;99998.21;;;;
2020/11/24 08:48:41;;;;;;;16.7;8.9;;;;;;;5.8;63.99512;99999.42;;;;
2020/11/24 08:58:41;;;;;;;11.2;5.7;;;;;;;5.9;62.62012;99990.81;;;;
2020/11/24 09:08:37;;;;;;;5.3;3.3;;;;;;;6.03;59.99316;99985.13;;;;
2020/11/24 09:18:35;;;;;;;6.1;3.8;;;;;;;6.22;61.23145;99989.17;;;;
2020/11/24 09:28:33;;;;;;;16.2;3.7;;;;;;;6.44;58.01563;99978.52;;;;
2020/11/24 09:38:32;;;;;;;7.5;4.4;;;;;;;6.52;57.74512;99983.47;;;;
2020/11/24 09:48:30;;;;;;;7.5;4.1;;;;;;;6.66;57.28027;99978.56;;;;
2020/11/24 09:58:28;;;;;;;4.5;2.8;;;;;;;6.82;56.73926;99975.02;;;;
2020/11/24 10:08:26;;;;;;;11;4;;;;;;;6.96;57.70215;99954.82;;;;
2020/11/24 10:18:24;;;;;;;5.8;3.3;;;;;;;7.2;54.31055;99936.59;;;;
2020/11/24 10:28:22;;;;;;;6.2;4.2;;;;;;;7.21;55.08887;99908.72;;;;
2020/11/24 10:38:24;;;;;;;4.5;2.6;;;;;;;7.28;54.18457;99903.97;;;;
2020/11/24 10:48:19;;;;;;;4.6;2.9;;;;;;;7.62;53.43848;99891.94;;;;
2020/11/24 10:58:17;;;;;;;6.6;3.8;;;;;;;7.76;53.41113;99882.39;;;;
2020/11/24 11:08:15;;;;;;;11.5;4.3;;;;;;;7.87;55.0957;99873.34;;;;
2020/11/24 11:18:14;;;;;;;6.7;3.8;;;;;;;7.89;54.51074;99881.94;;;;
2020/11/24 11:28:12;;;;;;;6.9;3.4;;;;;;;8.01;53.38574;99863.78;;;;
2020/11/24 11:38:10;;;;;;;4.5;2.8;;;;;;;8.2;52.91016;99849.89;;;;
2020/11/24 11:48:09;;;;;;;7.3;4.3;;;;;;;7.89;53.20117;99846.23;;;;
2020/11/24 11:58:07;;;;;;;12.5;6.1;;;;;;;8.2;52.08594;99847.21;;;;
2020/11/24 12:08:05;;;;;;;10.1;4.9;;;;;;;8.27;52.625;99835.17;;;;
2020/11/24 12:18:04;;;;;;;11.1;5.2;;;;;;;8.34;52.31738;99829.59;;;;
2020/11/24 12:28:02;;;;;;;8.9;4.9;;;;;;;8.33;52.28223;99830.68;;;;
2020/11/24 12:38:01;;;;;;;9.1;6;;;;;;;8.3;51.74805;99818.56;;;;
2020/11/24 12:47:59;;;;;;;8.2;5;;;;;;;8.25;51.79785;99807.78;;;;
2020/11/24 12:57:58;;;;;;;9.8;5.5;;;;;;;8.16;52.75879;99800.49;;;;
2020/11/24 13:07:56;;;;;;;9.4;5.3;;;;;;;7.95;52.41797;99792.31;;;;
2020/11/24 13:17:54;;;;;;;9.6;5.6;;;;;;;7.69;53.36914;99785.2;;;;
2020/11/24 13:27:53;;;;;;;13.6;6.7;;;;;;;7.5;53.69434;99783.98;;;;
2020/11/24 13:37:51;;;;;;;13.2;7.5;;;;;;;7.15;55.12695;99779.16;;;;
2020/11/24 13:47:49;;;;;;;11.5;8.7;;;;;;;6.79;56.13965;99775.38;;;;
2020/11/24 13:57:47;;;;;;;12.4;8.3;;;;;;;6.35;57.27441;99774.63;;;;
2020/11/24 14:07:46;;;;;;;12.9;7.7;;;;;;;5.97;58.62793;99772.83;;;;
2020/11/24 14:17:44;;;;;;;12.7;8.4;;;;;;;5.46;59.4873;99767.81;;;;
2020/11/24 14:27:42;;;;;;;27.1;18.9;;;;;;;5;61.1709;99751.07;;;;
2020/11/24 14:37:42;;;;;;;17.9;13.9;;;;;;;4.64;62.23828;99762.22;;;;
2020/11/24 14:47:38;;;;;;;15.3;11.4;;;;;;;4.21;64.23828;99751.24;;;;
2020/11/24 14:57:36;;;;;;;15.6;9.8;;;;;;;3.8;64.53613;99750.44;;;;
2020/11/24 15:07:34;;;;;;;20.4;12.8;;;;;;;3.42;66.26953;99747.47;;;;
2020/11/24 15:17:32;;;;;;;26.2;19.4;;;;;;;3.07;67.15039;99755.44;;;;
2020/11/24 15:27:30;;;;;;;28.5;19.6;;;;;;;2.81;68.75391;99759.33;;;;
2020/11/24 15:37:27;;;;;;;23.2;16.5;;;;;;;2.61;69.77734;99753.48;;;;
2020/11/24 15:47:33;;;;;;;33.1;22.8;;;;;;;2.44;70.40332;99750.67;;;;
2020/11/24 15:57:23;;;;;;;28.9;23.3;;;;;;;2.42;71.39746;99746.62;;;;
2020/11/24 16:07:21;;;;;;;43.3;25.6;;;;;;;2.64;73.33105;99738.94;;;;
2020/11/24 16:17:19;;;;;;;39.7;29.4;;;;;;;2.66;73.125;99732.34;;;;
2020/11/24 16:27:16;;;;;;;45;30.9;;;;;;;2.52;72.10254;99728.26;;;;
2020/11/24 16:47:12;;;;;;;32.8;21.5;;;;;;;2.5;72.2207;99719.67;;;;
2020/11/24 16:57:10;;;;;;;27.6;21.6;;;;;;;2.49;70.74512;99713.56;;;;
2020/11/24 17:07:07;;;;;;;25.9;18.4;;;;;;;2.39;70.16211;99707.17;;;;
2020/11/24 17:17:05;;;;;;;19.5;16.7;;;;;;;2.35;70.01172;99708.66;;;;
2020/11/24 17:27:03;;;;;;;26.5;19.6;;;;;;;2.26;70.18555;99716.13;;;;
2020/11/24 17:37:01;;;;;;;32;20.5;;;;;;;1.9;70.50391;99722.34;;;;
2020/11/24 17:46:58;;;;;;;26.2;18;;;;;;;1.57;70.69336;99727.22;;;;
2020/11/24 17:56:56;;;;;;;26.5;17.5;;;;;;;1.29;72.91309;99721.58;;;;
2020/11/24 18:06:54;;;;;;;24.4;18.6;;;;;;;1.79;71.71387;99711.64;;;;
2020/11/24 18:16:51;;;;;;;23.4;17.7;;;;;;;1.63;72.2627;99709.59;;;;
2020/11/24 18:26:49;;;;;;;27.9;21.1;;;;;;;1.6;72.24707;99716.14;;;;
2020/11/24 18:36:47;;;;;;;30.7;21.4;;;;;;;1.37;72.98145;99702.72;;;;
2020/11/24 18:46:44;;;;;;;37.3;20.6;;;;;;;1.05;73.30273;99706.5;;;;
2020/11/24 18:56:42;;;;;;;29.3;18.2;;;;;;;0.76;73.73926;99714.12;;;;
2020/11/24 19:06:39;;;;;;;38.5;25.3;;;;;;;0.49;74.14453;99696.75;;;;
2020/11/24 19:16:37;;;;;;;38.2;22.4;;;;;;;0.2;74.90918;99697.37;;;;
2020/11/24 19:26:34;;;;;;;27.2;19.4;;;;;;;-0.1;75.93457;99681.2;;;;
2020/11/24 19:36:32;;;;;;;26.7;18.4;;;;;;;-0.11;77.45313;99679.6;;;;
2020/11/24 19:46:29;;;;;;;38.1;25.5;;;;;;;0.15;77.39063;99671.49;;;;
2020/11/24 19:56:27;;;;;;;26.2;21;;;;;;;-0.05;77.02344;99662.85;;;;
2020/11/24 20:06:24;;;;;;;28.6;19.7;;;;;;;-0.2;77.21582;99667.61;;;;
2020/11/24 20:16:22;;;;;;;22.1;16.2;;;;;;;-0.38;77.69043;99668.3;;;;
2020/11/24 20:26:19;;;;;;;27.4;17.9;;;;;;;-0.61;77.80176;99657.39;;;;
2020/11/24 20:36:16;;;;;;;40.2;30.1;;;;;;;-0.86;77.80078;99665.2;;;;
2020/11/24 20:46:14;;;;;;;25.9;17.5;;;;;;;-1.09;78.07617;99664.84;;;;
2020/11/24 20:56:11;;;;;;;59.9;47.1;;;;;;;-1.34;78.95215;99661.2;;;;
2020/11/24 21:06:08;;;;;;;51.4;30.3;;;;;;;-1.54;79.31934;99655.92;;;;
2020/11/24 21:16:06;;;;;;;48.2;29.8;;;;;;;-1.72;79.63574;99650.42;;;;
2020/11/24 21:26:03;;;;;;;40.8;28.4;;;;;;;-1.96;80.00684;99629.87;;;;
2020/11/24 21:36:00;;;;;;;35;25.3;;;;;;;-2.14;80.69727;99649.75;;;;
2020/11/24 21:45:57;;;;;;;48;29.4;;;;;;;-2.26;81.29688;99637.34;;;;
2020/11/24 21:55:55;;;;;;;42.1;28.5;;;;;;;-2.41;81.62793;99640.13;;;;
2020/11/24 22:05:52;;;;;;;30.6;18.7;;;;;;;-2.43;82.84863;99623.66;;;;
2020/11/24 22:15:49;;;;;;;30.7;21;;;;;;;-2.37;84.26758;99622.06;;;;
2020/11/24 22:25:46;;;;;;;27.6;18.7;;;;;;;-2.2;83.55859;99631.25;;;;
2020/11/24 22:35:44;;;;;;;34.8;22.4;;;;;;;-2.22;82.82324;99625.37;;;;
2020/11/24 22:45:43;;;;;;;23.9;19.6;;;;;;;-2.23;82.14355;99623.73;;;;
2020/11/24 22:55:37;;;;;;;37.8;22.2;;;;;;;-2.26;81.97461;99622.31;;;;
2020/11/24 23:05:35;;;;;;;79.4;48.7;;;;;;;-2.44;82.59375;99608.03;;;;
2020/11/24 23:15:32;;;;;;;69.6;42.6;;;;;;;-2.63;82.27441;99613.05;;;;
2020/11/24 23:25:29;;;;;;;95.9;58.6;;;;;;;-2.75;83.52734;99613.81;;;;
2020/11/24 23:35:26;;;;;;;76;43.3;;;;;;;-2.92;83.57031;99583.52;;;;
2020/11/24 23:45:23;;;;;;;53.2;34.9;;;;;;;-3.05;83.15332;99585.06;;;;
2020/11/24 23:55:20;;;;;;;27.2;17;;;;;;;-2.96;84.32715;99575.17;;;;
